Time,TemperatureF,DewpointF,PressureIn,WindDirection,WindDirectionDegrees,WindSpeedMPH,WindSpeedGustMPH,Humidity,HourlyPrecipIn,Conditions,Clouds,dailyrainin,SoftwareType,DateUTC
2014-02-27 00:00:00,17.8,8.7,29.83,WNW,292,1.0,7.0,67,0.00,,,-99.99,WeatherLink 5.6,2014-02-27 05:00:00,
2014-02-27 00:30:00,17.7,8.6,29.82,WSW,247,2.0,7.0,67,0.00,,,-99.99,WeatherLink 5.6,2014-02-27 05:30:00,
2014-02-27 01:00:00,17.3,7.9,29.82,SW,225,1.0,5.0,66,0.00,,,-99.99,WeatherLink 5.6,2014-02-27 06:00:00,
2014-02-27 01:30:00,17.3,7.5,29.80,North,-999,0.0,0.0,65,0.00,,,-99.99,WeatherLink 5.6,2014-02-27 06:30:00,
2014-02-27 02:00:00,17.2,6.8,29.80,South,180,0.0,3.0,63,0.00,,,-99.99,WeatherLink 5.6,2014-02-27 07:00:00,
2014-02-27 02:30:00,16.6,6.9,29.78,South,180,0.0,3.0,65,0.00,,,-99.99,WeatherLink 5.6,2014-02-27 07:30:00,
2014-02-27 03:00:00,17.3,5.8,29.79,WNW,292,1.0,6.0,60,0.00,,,-99.99,WeatherLink 5.6,2014-02-27 08:00:00,
2014-02-27 03:30:00,16.2,5.8,29.79,WNW,292,1.0,7.0,63,0.00,,,-99.99,WeatherLink 5.6,2014-02-27 08:30:00,
2014-02-27 04:00:00,16.2,5.8,29.78,West,270,2.0,10.0,63,0.00,,,-99.99,WeatherLink 5.6,2014-02-27 09:00:00,
2014-02-27 04:30:00,16.0,5.6,29.79,WSW,247,4.0,11.0,63,0.00,,,-99.99,WeatherLink 5.6,2014-02-27 09:30:00,
2014-02-27 05:00:00,15.4,5.4,29.80,WSW,247,3.0,9.0,64,0.00,,,-99.99,WeatherLink 5.6,2014-02-27 10:00:00,
2014-02-27 05:30:00,14.7,4.0,29.81,West,270,2.0,10.0,62,0.00,,,-99.99,WeatherLink 5.6,2014-02-27 10:30:00,
2014-02-27 06:00:00,14.4,0.8,29.81,West,270,3.0,12.0,54,0.00,,,-99.99,WeatherLink 5.6,2014-02-27 11:00:00,
2014-02-27 06:30:00,13.9,1.5,29.83,WSW,247,3.0,11.0,57,0.00,,,-99.99,WeatherLink 5.6,2014-02-27 11:30:00,
2014-02-27 07:00:00,13.9,1.8,29.83,SW,225,4.0,12.0,58,0.00,,,-99.99,WeatherLink 5.6,2014-02-27 12:00:00,
2014-02-27 07:30:00,15.2,2.3,29.83,SSW,202,4.0,12.0,56,0.00,,,-99.99,WeatherLink 5.6,2014-02-27 12:30:00,
2014-02-27 08:00:00,16.2,5.5,29.84,South,180,3.0,11.0,62,0.00,,,-99.99,WeatherLink 5.6,2014-02-27 13:00:00,
2014-02-27 08:30:00,17.5,5.2,29.85,SSW,202,4.0,10.0,58,0.00,,,-99.99,WeatherLink 5.6,2014-02-27 13:30:00,
2014-02-27 09:00:00,18.0,4.5,29.86,SSW,202,5.0,12.0,55,0.00,,,-99.99,WeatherLink 5.6,2014-02-27 14:00:00,
2014-02-27 09:30:00,19.4,4.6,29.85,WSW,247,7.0,18.0,52,0.00,,,-99.99,WeatherLink 5.6,2014-02-27 14:30:00,
2014-02-27 10:00:00,21.7,7.2,29.83,WSW,247,6.0,18.0,53,0.00,,,-99.99,WeatherLink 5.6,2014-02-27 15:00:00,
2014-02-27 10:30:00,22.6,7.2,29.84,WSW,247,9.0,18.0,51,0.00,,,-99.99,WeatherLink 5.6,2014-02-27 15:30:00,
2014-02-27 11:00:00,24.0,8.0,29.83,West,270,7.0,18.0,50,0.00,,,-99.99,WeatherLink 5.6,2014-02-27 16:00:00,
2014-02-27 11:30:00,26.3,8.8,29.82,WSW,247,7.0,17.0,47,0.00,,,-99.99,WeatherLink 5.6,2014-02-27 16:30:00,
2014-02-27 12:00:00,28.3,10.6,29.81,West,270,7.0,22.0,47,0.00,,,-99.99,WeatherLink 5.6,2014-02-27 17:00:00,
2014-02-27 12:30:00,29.4,7.5,29.81,NW,315,8.0,23.0,39,0.00,,,-99.99,WeatherLink 5.6,2014-02-27 17:30:00,
2014-02-27 13:00:00,30.4,8.4,29.80,WNW,292,12.0,26.0,39,0.00,,,-99.99,WeatherLink 5.6,2014-02-27 18:00:00,
2014-02-27 13:30:00,31.0,8.3,29.79,NW,315,10.0,23.0,38,0.00,,,-99.99,WeatherLink 5.6,2014-02-27 18:30:00,
2014-02-27 14:00:00,31.2,8.5,29.79,NW,315,11.0,25.0,38,0.00,,,-99.99,WeatherLink 5.6,2014-02-27 19:00:00,
2014-02-27 14:30:00,32.3,10.1,29.80,NW,315,10.0,21.0,39,0.00,,,-99.99,WeatherLink 5.6,2014-02-27 19:30:00,
2014-02-27 15:00:00,32.0,10.4,29.81,NW,315,10.0,24.0,40,0.00,,,-99.99,WeatherLink 5.6,2014-02-27 20:00:00,
2014-02-27 15:30:00,31.7,10.7,29.82,NW,315,9.0,19.0,41,0.00,,,-99.99,WeatherLink 5.6,2014-02-27 20:30:00,
2014-02-27 16:00:00,31.4,9.8,29.83,NW,315,9.0,19.0,40,0.00,,,-99.99,WeatherLink 5.6,2014-02-27 21:00:00,
2014-02-27 16:30:00,30.8,9.3,29.84,NW,315,9.0,22.0,40,0.00,,,-99.99,WeatherLink 5.6,2014-02-27 21:30:00,
2014-02-27 17:00:00,30.8,11.4,29.85,NW,315,8.0,19.0,44,0.00,,,-99.99,WeatherLink 5.6,2014-02-27 22:00:00,
2014-02-27 17:30:00,29.9,10.1,29.87,NW,315,8.0,18.0,43,0.00,,,-99.99,WeatherLink 5.6,2014-02-27 22:30:00,
2014-02-27 18:00:00,28.4,8.7,29.89,NW,315,6.0,13.0,43,0.00,,,-99.99,WeatherLink 5.6,2014-02-27 23:00:00,
2014-02-27 18:30:00,27.3,9.2,29.90,NW,315,5.0,12.0,46,0.00,,,-99.99,WeatherLink 5.6,2014-02-27 23:30:00,
2014-02-27 19:00:00,26.2,10.5,29.92,NW,315,5.0,12.0,51,0.00,,,-99.99,WeatherLink 5.6,2014-02-28 00:00:00,
2014-02-27 19:30:00,25.2,10.0,29.92,NW,315,3.0,11.0,52,0.00,,,-99.99,WeatherLink 5.6,2014-02-28 00:30:00,
2014-02-27 20:00:00,24.6,9.5,29.93,WNW,292,1.0,6.0,52,0.00,,,-99.99,WeatherLink 5.6,2014-02-28 01:00:00,
2014-02-27 20:30:00,23.8,9.6,29.94,WNW,292,2.0,12.0,54,0.00,,,-99.99,WeatherLink 5.6,2014-02-28 01:30:00,
2014-02-27 21:00:00,23.4,10.4,29.94,NW,315,4.0,13.0,57,0.00,,,-99.99,WeatherLink 5.6,2014-02-28 02:00:00,
2014-02-27 21:30:00,22.6,10.0,29.95,NW,315,2.0,7.0,58,0.00,,,-99.99,WeatherLink 5.6,2014-02-28 02:30:00,
2014-02-27 22:00:00,22.3,10.1,29.95,NW,315,4.0,9.0,59,0.00,,,-99.99,WeatherLink 5.6,2014-02-28 03:00:00,
2014-02-27 22:30:00,22.1,10.3,29.95,NW,315,7.0,13.0,60,0.00,,,-99.99,WeatherLink 5.6,2014-02-28 03:30:00,
2014-02-27 23:00:00,19.9,10.4,29.96,NW,315,1.0,7.0,66,0.00,,,-99.99,WeatherLink 5.6,2014-02-28 04:00:00,
2014-02-27 23:30:00,19.3,9.8,29.96,NW,315,2.0,6.0,66,0.00,,,-99.99,WeatherLink 5.6,2014-02-28 04:30:00,